Time;durP1;ratioP1;P1;durP2;ratioP2;P2;SDS_P1;SDS_P2;PMS_P1;PMS_P2;Temp;Humidity;BMP_temperature;BMP_pressure;BME280_temperature;BME280_humidity;BME280_pressure;Samples;Min_cycle;Max_cycle;Signal;HPM_P1;HPM_P2
2023/07/09 00:00:43;;;;;;;4.03;3.30;;;21.40;99.90;;;;;;5013754;28;20274;-77
2023/07/09 00:03:12;;;;;;;4.37;3.00;;;21.40;99.90;;;;;;5013324;28;20665;-77
2023/07/09 00:05:39;;;;;;;4.47;4.07;;;21.30;99.90;;;;;;5005927;28;20682;-77
2023/07/09 00:08:06;;;;;;;3.87;3.47;;;21.30;99.90;;;;;;5014015;28;20235;-76
2023/07/09 00:10:34;;;;;;;5.57;4.07;;;21.30;99.90;;;;;;5013540;28;20730;-77
2023/07/09 00:13:01;;;;;;;5.10;4.60;;;21.30;99.90;;;;;;5014028;28;20602;-77
2023/07/09 00:15:28;;;;;;;5.00;4.50;;;21.20;99.90;;;;;;4996114;28;20231;-77
2023/07/09 00:17:55;;;;;;;4.50;3.70;;;21.20;99.90;;;;;;5013597;28;20239;-77
2023/07/09 00:20:23;;;;;;;5.43;3.77;;;21.20;99.90;;;;;;5012127;28;20224;-77
2023/07/09 00:22:52;;;;;;;6.10;5.50;;;21.20;99.90;;;;;;5013328;28;20221;-77
2023/07/09 00:25:20;;;;;;;5.13;4.73;;;21.20;99.90;;;;;;5012234;28;20215;-77
2023/07/09 00:27:49;;;;;;;5.77;5.17;;;21.10;99.90;;;;;;5013850;28;20208;-77
2023/07/09 00:30:22;;;;;;;4.87;3.80;;;21.10;99.90;;;;;;5013235;28;20593;-76
2023/07/09 00:32:49;;;;;;;3.50;3.17;;;21.00;99.90;;;;;;5008679;28;20220;-76
2023/07/09 00:35:16;;;;;;;4.63;3.63;;;21.00;99.90;;;;;;5008962;28;20243;-77
2023/07/09 00:37:45;;;;;;;4.77;3.40;;;21.00;99.90;;;;;;5013399;28;20193;-77
2023/07/09 00:40:18;;;;;;;4.03;3.40;;;21.00;99.90;;;;;;4994850;28;20224;-76
2023/07/09 00:42:47;;;;;;;3.57;3.20;;;21.00;99.90;;;;;;5004655;28;20220;-77
2023/07/09 00:45:23;;;;;;;5.20;4.70;;;20.90;99.90;;;;;;5012074;28;20200;-77
2023/07/09 00:47:54;;;;;;;5.00;4.40;;;20.90;99.90;;;;;;5011979;28;20608;-77
2023/07/09 00:50:36;;;;;;;5.00;4.50;;;20.80;99.90;;;;;;5008972;28;20205;-76
2023/07/09 00:53:11;;;;;;;5.20;4.70;;;20.80;99.90;;;;;;5013171;28;20267;-76
2023/07/09 00:55:41;;;;;;;4.97;3.37;;;20.80;99.90;;;;;;5012050;28;20200;-77
2023/07/09 00:58:15;;;;;;;4.97;3.53;;;20.70;99.90;;;;;;4995534;28;20220;-76
2023/07/09 01:00:48;;;;;;;4.50;3.87;;;20.60;99.90;;;;;;5003242;28;20709;-77
2023/07/09 01:03:27;;;;;;;4.03;3.43;;;20.60;99.90;;;;;;5012494;28;20224;-76
2023/07/09 01:05:55;;;;;;;5.57;4.03;;;20.50;99.90;;;;;;5011814;28;20196;-77
2023/07/09 01:08:23;;;;;;;6.20;4.40;;;20.40;99.90;;;;;;5011594;28;20271;-77
2023/07/09 01:10:50;;;;;;;4.67;3.97;;;20.40;99.90;;;;;;4995090;28;20197;-77
2023/07/09 01:13:19;;;;;;;5.10;4.07;;;20.30;99.90;;;;;;5011029;28;20220;-76
2023/07/09 01:15:48;;;;;;;5.67;4.57;;;20.30;99.90;;;;;;5011566;28;20204;-77
2023/07/09 01:18:14;;;;;;;7.70;6.97;;;20.20;99.90;;;;;;5007915;28;20197;-77
2023/07/09 01:20:43;;;;;;;7.13;6.47;;;20.10;99.90;;;;;;5012223;28;20208;-77
2023/07/09 01:23:11;;;;;;;6.77;6.07;;;20.00;99.90;;;;;;5010923;28;20223;-77
2023/07/09 01:25:44;;;;;;;6.40;4.77;;;20.00;99.90;;;;;;5012223;28;20213;-77
2023/07/09 01:28:11;;;;;;;6.80;6.10;;;20.00;99.90;;;;;;5011035;28;20246;-77
2023/07/09 01:30:40;;;;;;;6.63;6.03;;;19.90;99.90;;;;;;5010314;28;20205;-77
2023/07/09 01:33:07;;;;;;;6.97;6.27;;;19.80;99.90;;;;;;5010523;28;20227;-76
2023/07/09 01:35:36;;;;;;;6.37;5.10;;;19.80;99.90;;;;;;5009757;28;20197;-77
2023/07/09 01:38:06;;;;;;;7.60;4.87;;;19.80;99.90;;;;;;5007602;28;20398;-77
2023/07/09 01:40:37;;;;;;;6.47;4.30;;;19.70;99.90;;;;;;5009155;28;20718;-77
2023/07/09 01:43:06;;;;;;;6.07;4.60;;;19.70;99.90;;;;;;5010484;28;20310;-77
2023/07/09 01:45:35;;;;;;;5.50;4.53;;;19.70;99.90;;;;;;5012034;28;20528;-77
2023/07/09 01:48:03;;;;;;;6.77;4.93;;;19.70;99.90;;;;;;5013039;28;20242;-77
2023/07/09 01:50:30;;;;;;;5.83;4.97;;;19.60;99.90;;;;;;4993787;28;20196;-77
2023/07/09 01:52:58;;;;;;;6.43;4.80;;;19.60;99.90;;;;;;5011378;28;20226;-77
2023/07/09 01:55:25;;;;;;;7.93;6.93;;;19.50;99.90;;;;;;4994039;28;20207;-77
2023/07/09 01:57:53;;;;;;;5.50;4.40;;;19.40;99.90;;;;;;4994168;28;20660;-77
2023/07/09 02:00:21;;;;;;;6.73;4.90;;;19.40;99.90;;;;;;5001500;28;20216;-77
2023/07/09 02:02:50;;;;;;;6.70;5.00;;;19.40;99.90;;;;;;5010025;28;20221;-77
2023/07/09 02:05:18;;;;;;;7.40;6.13;;;19.40;99.90;;;;;;5007130;28;20218;-77
2023/07/09 02:07:46;;;;;;;4.97;4.10;;;19.40;99.90;;;;;;4993991;28;20230;-77
2023/07/09 02:10:13;;;;;;;5.43;4.30;;;19.40;99.90;;;;;;5010356;28;21117;-77
2023/07/09 02:12:40;;;;;;;5.90;4.30;;;19.40;99.90;;;;;;5011411;28;20235;-77
2023/07/09 02:15:10;;;;;;;7.63;6.73;;;19.40;99.90;;;;;;5011805;28;20207;-77
2023/07/09 02:17:37;;;;;;;6.67;4.87;;;19.40;99.90;;;;;;5010303;28;20207;-77
2023/07/09 02:20:05;;;;;;;6.37;4.57;;;19.30;99.90;;;;;;5011547;28;20297;-77
2023/07/09 02:22:32;;;;;;;5.77;4.07;;;19.40;99.90;;;;;;5008349;28;20243;-77
2023/07/09 02:24:59;;;;;;;5.67;4.40;;;19.30;99.90;;;;;;5007214;28;20203;-77
2023/07/09 02:27:27;;;;;;;6.13;4.30;;;19.30;99.90;;;;;;5008641;28;20711;-77
2023/07/09 02:29:55;;;;;;;5.50;4.40;;;19.30;99.90;;;;;;5010093;28;20210;-77
2023/07/09 02:32:27;;;;;;;4.93;4.40;;;19.30;99.90;;;;;;5009619;28;20253;-76
2023/07/09 02:34:55;;;;;;;6.70;4.00;;;19.30;99.90;;;;;;4993948;28;20723;-77
2023/07/09 02:37:25;;;;;;;6.57;4.97;;;19.30;99.90;;;;;;5001399;28;20196;-76
2023/07/09 02:39:51;;;;;;;6.40;4.67;;;19.20;99.90;;;;;;5009789;28;20206;-77
2023/07/09 02:42:21;;;;;;;7.47;5.37;;;19.20;99.90;;;;;;5007011;28;20582;-77
2023/07/09 02:44:49;;;;;;;6.13;4.50;;;19.20;99.90;;;;;;4993821;28;20459;-77
2023/07/09 02:47:16;;;;;;;7.57;6.77;;;19.10;99.90;;;;;;5011388;28;20200;-77
2023/07/09 02:49:44;;;;;;;7.43;6.73;;;19.10;99.90;;;;;;4994008;28;20204;-77
2023/07/09 02:52:11;;;;;;;6.23;4.50;;;19.10;99.90;;;;;;4985236;28;20223;-77
2023/07/09 02:54:38;;;;;;;7.87;5.00;;;19.10;99.90;;;;;;5008644;28;20219;-76
2023/07/09 02:57:05;;;;;;;6.73;4.50;;;19.00;99.90;;;;;;5010091;28;20207;-77
2023/07/09 02:59:33;;;;;;;7.60;5.27;;;19.00;99.90;;;;;;5007934;28;20223;-76
2023/07/09 03:02:02;;;;;;;5.70;4.87;;;19.00;99.90;;;;;;5009131;28;20648;-77
2023/07/09 03:04:29;;;;;;;5.93;4.63;;;18.90;99.90;;;;;;5010489;28;20204;-77
2023/07/09 03:06:57;;;;;;;7.13;4.60;;;18.90;99.90;;;;;;5013641;28;20215;-77
2023/07/09 03:09:24;;;;;;;5.90;4.53;;;18.90;99.90;;;;;;5014661;28;20670;-76
2023/07/09 03:11:51;;;;;;;6.10;4.37;;;18.90;99.90;;;;;;5014196;28;20249;-81
2023/07/09 03:14:17;;;;;;;4.93;3.83;;;18.90;99.90;;;;;;5010761;28;20256;-79
2023/07/09 03:16:44;;;;;;;5.50;4.30;;;19.00;99.90;;;;;;5011578;28;20210;-77
2023/07/09 03:19:11;;;;;;;5.83;4.03;;;19.00;99.90;;;;;;5017046;28;20199;-77
2023/07/09 03:21:38;;;;;;;4.70;4.00;;;19.00;99.90;;;;;;5015111;28;20243;-77
2023/07/09 03:24:08;;;;;;;4.77;3.87;;;19.00;99.90;;;;;;5017459;28;20199;-78
2023/07/09 03:26:35;;;;;;;5.07;4.00;;;19.00;99.90;;;;;;5012863;28;20208;-80
2023/07/09 03:29:02;;;;;;;4.67;3.77;;;19.00;99.90;;;;;;5016711;28;20200;-79
2023/07/09 03:31:29;;;;;;;4.67;4.00;;;19.00;99.90;;;;;;5017918;28;20196;-79
2023/07/09 03:33:56;;;;;;;4.43;3.83;;;19.00;99.90;;;;;;5000915;28;20744;-77
2023/07/09 03:36:23;;;;;;;5.47;3.77;;;18.90;99.90;;;;;;5002159;28;20195;-78
2023/07/09 03:38:50;;;;;;;4.97;4.20;;;18.90;99.90;;;;;;5019898;28;20589;-79
2023/07/09 03:41:18;;;;;;;4.40;3.70;;;18.90;99.90;;;;;;5017710;28;20230;-78
2023/07/09 03:43:45;;;;;;;5.00;3.83;;;18.90;99.90;;;;;;5002147;28;20208;-77
2023/07/09 03:46:12;;;;;;;3.97;3.57;;;18.90;99.90;;;;;;5018101;28;20207;-78
2023/07/09 03:48:39;;;;;;;6.10;3.70;;;19.00;99.90;;;;;;5016798;28;20204;-78
2023/07/09 03:51:06;;;;;;;3.83;3.10;;;19.00;99.90;;;;;;5002061;28;20286;-79
2023/07/09 03:53:32;;;;;;;3.80;3.40;;;19.00;99.90;;;;;;5014477;28;20254;-77
2023/07/09 03:56:00;;;;;;;5.77;3.93;;;19.00;99.90;;;;;;4997924;28;20200;-78
2023/07/09 03:58:29;;;;;;;4.73;3.80;;;19.10;99.90;;;;;;5010187;28;20203;-77
2023/07/09 04:00:55;;;;;;;3.87;3.57;;;19.20;99.90;;;;;;4992159;28;20219;-77
2023/07/09 04:03:23;;;;;;;4.17;3.50;;;19.20;99.90;;;;;;5015985;28;20223;-77
2023/07/09 04:05:51;;;;;;;4.87;4.00;;;19.30;99.90;;;;;;5015807;28;20203;-77
2023/07/09 04:08:17;;;;;;;5.00;4.10;;;19.30;99.90;;;;;;5014810;28;20197;-78
2023/07/09 04:10:44;;;;;;;5.97;4.30;;;19.40;99.90;;;;;;5014082;28;20207;-78
2023/07/09 04:13:11;;;;;;;6.60;3.90;;;19.50;99.90;;;;;;5013950;28;20314;-79
2023/07/09 04:15:39;;;;;;;5.23;4.00;;;19.50;99.90;;;;;;4996166;28;20250;-78
2023/07/09 04:18:06;;;;;;;4.97;4.07;;;19.60;99.90;;;;;;5015681;28;20681;-78
2023/07/09 04:20:34;;;;;;;5.23;4.00;;;19.70;99.90;;;;;;5014189;28;20200;-78
2023/07/09 04:23:02;;;;;;;5.53;4.37;;;19.70;99.90;;;;;;5016410;28;20239;-77
2023/07/09 04:25:29;;;;;;;6.90;5.10;;;19.80;99.90;;;;;;5004245;28;20207;-81
2023/07/09 04:27:56;;;;;;;7.50;6.80;;;19.90;99.90;;;;;;5018000;28;20197;-80
2023/07/09 04:30:22;;;;;;;4.93;4.37;;;20.00;99.90;;;;;;5016956;28;20246;-77
2023/07/09 04:32:51;;;;;;;6.20;5.60;;;20.10;99.90;;;;;;5015142;28;20936;-80
2023/07/09 04:35:18;;;;;;;5.17;4.07;;;20.20;99.90;;;;;;5010209;28;20881;-78
2023/07/09 04:37:45;;;;;;;6.90;6.30;;;20.30;99.90;;;;;;4995815;28;20226;-81
2023/07/09 04:40:13;;;;;;;5.20;3.93;;;20.40;99.90;;;;;;5013170;28;20197;-76
2023/07/09 04:42:40;;;;;;;6.03;3.93;;;20.40;99.90;;;;;;4994717;28;20306;-77
2023/07/09 04:45:09;;;;;;;4.70;4.20;;;20.60;99.90;;;;;;5012467;28;20243;-77
2023/07/09 04:47:37;;;;;;;5.47;3.93;;;20.80;99.90;;;;;;5012082;28;20726;-77
2023/07/09 04:50:07;;;;;;;9.17;6.17;;;20.90;99.90;;;;;;5005730;28;20220;-77
2023/07/09 04:52:34;;;;;;;6.70;4.10;;;21.00;99.90;;;;;;5012339;28;20213;-77
2023/07/09 04:55:02;;;;;;;6.97;5.03;;;21.30;99.90;;;;;;5012450;28;20200;-76
2023/07/09 04:57:29;;;;;;;7.27;5.23;;;22.10;99.90;;;;;;5012279;28;20689;-77
2023/07/09 04:59:55;;;;;;;6.43;4.93;;;22.60;99.90;;;;;;5008166;28;20278;-76
2023/07/09 05:02:23;;;;;;;8.27;7.37;;;23.00;99.90;;;;;;5010670;28;20227;-77
2023/07/09 05:04:49;;;;;;;5.87;5.07;;;23.10;99.90;;;;;;5010338;28;20205;-76
2023/07/09 05:07:18;;;;;;;8.37;6.97;;;22.90;99.90;;;;;;5012085;28;20204;-77
2023/07/09 05:09:45;;;;;;;7.53;5.30;;;22.50;99.90;;;;;;5012084;28;20204;-77
2023/07/09 05:12:11;;;;;;;7.00;6.07;;;22.20;99.90;;;;;;5011889;28;20627;-76
2023/07/09 05:14:39;;;;;;;7.73;6.73;;;22.00;99.90;;;;;;4994278;28;20208;-76
2023/07/09 05:17:06;;;;;;;7.63;6.87;;;22.00;99.90;;;;;;5010596;28;20279;-76
2023/07/09 05:19:33;;;;;;;7.53;6.83;;;22.10;99.90;;;;;;5010730;28;20581;-76
2023/07/09 05:22:00;;;;;;;7.00;5.53;;;22.20;99.90;;;;;;5011926;28;20227;-76
2023/07/09 05:24:28;;;;;;;7.70;7.00;;;22.40;99.90;;;;;;5011998;28;20287;-75
2023/07/09 05:26:55;;;;;;;6.83;5.60;;;22.40;99.90;;;;;;5011335;28;20266;-75
2023/07/09 05:29:22;;;;;;;7.57;6.87;;;22.40;99.90;;;;;;5007123;28;20691;-76
2023/07/09 05:31:48;;;;;;;6.10;5.13;;;22.30;99.90;;;;;;5010614;28;20278;-76
2023/07/09 05:34:15;;;;;;;7.03;5.30;;;22.40;99.90;;;;;;5011971;28;20699;-75
2023/07/09 05:36:42;;;;;;;6.23;5.63;;;22.40;99.90;;;;;;5010676;28;20201;-76
2023/07/09 05:39:09;;;;;;;7.60;6.83;;;22.50;99.90;;;;;;5011951;28;20543;-76
2023/07/09 05:41:37;;;;;;;7.37;4.83;;;22.60;99.90;;;;;;5011246;28;20304;-76
2023/07/09 05:44:04;;;;;;;7.40;6.70;;;22.70;99.90;;;;;;5011492;28;20816;-77
2023/07/09 05:46:36;;;;;;;7.40;6.70;;;23.00;99.90;;;;;;5012086;28;20259;-76
2023/07/09 05:49:04;;;;;;;8.30;7.50;;;23.30;99.90;;;;;;5010599;28;20215;-76
2023/07/09 05:51:31;;;;;;;7.20;6.20;;;23.70;99.90;;;;;;5010505;28;20196;-75
2023/07/09 05:53:57;;;;;;;9.10;7.07;;;24.20;99.90;;;;;;5011923;28;20238;-76
2023/07/09 05:56:24;;;;;;;7.63;6.77;;;25.10;99.90;;;;;;5012179;28;20200;-77
2023/07/09 05:58:53;;;;;;;7.30;6.23;;;25.70;99.90;;;;;;4995014;28;20263;-77
2023/07/09 06:01:20;;;;;;;6.00;4.50;;;26.20;99.90;;;;;;5012097;28;20215;-77
2023/07/09 06:03:47;;;;;;;5.73;4.60;;;26.50;99.90;;;;;;5013377;28;20203;-77
2023/07/09 06:06:14;;;;;;;6.63;5.90;;;26.80;99.90;;;;;;5013019;28;20247;-76
2023/07/09 06:08:41;;;;;;;8.13;7.33;;;27.20;99.90;;;;;;5008916;28;20260;-75
2023/07/09 06:11:08;;;;;;;6.33;5.73;;;27.50;99.90;;;;;;5011256;28;20201;-74
2023/07/09 06:13:35;;;;;;;6.90;6.20;;;27.80;99.90;;;;;;5046519;22;20227;-76
2023/07/09 06:16:04;;;;;;;7.10;6.40;;;28.10;99.90;;;;;;5004784;28;20689;-78
2023/07/09 06:18:31;;;;;;;7.07;6.27;;;28.50;99.90;;;;;;5035396;28;20201;-76
2023/07/09 06:20:59;;;;;;;7.57;6.00;;;28.60;99.90;;;;;;5030623;28;20508;-76
2023/07/09 06:23:26;;;;;;;7.67;6.17;;;28.80;99.90;;;;;;5039435;28;20211;-76
2023/07/09 06:25:53;;;;;;;7.60;6.37;;;28.80;99.90;;;;;;5044963;28;20230;-77
2023/07/09 06:28:22;;;;;;;7.37;6.60;;;28.70;99.90;;;;;;5028300;28;20200;-76
2023/07/09 06:30:50;;;;;;;8.20;7.40;;;28.60;99.90;;;;;;5037280;28;20227;-76
2023/07/09 06:33:19;;;;;;;10.13;7.20;;;28.80;99.90;;;;;;5042778;28;20225;-76
2023/07/09 06:35:50;;;;;;;8.63;7.83;;;29.00;99.90;;;;;;5048865;28;20199;-77
2023/07/09 06:38:17;;;;;;;8.03;7.23;;;29.20;99.90;;;;;;5047279;28;20191;-76
2023/07/09 06:40:44;;;;;;;8.00;7.20;;;29.40;99.90;;;;;;5030879;28;20744;-76
2023/07/09 06:43:11;;;;;;;8.67;7.43;;;29.70;99.90;;;;;;5047528;28;20215;-76
2023/07/09 06:45:48;;;;;;;7.93;7.17;;;29.80;99.90;;;;;;5047278;28;20253;-76
2023/07/09 06:48:15;;;;;;;7.50;6.80;;;30.00;99.90;;;;;;5051536;28;20190;-78
2023/07/09 06:50:43;;;;;;;8.97;6.50;;;30.00;99.90;;;;;;5034818;28;20611;-77
2023/07/09 06:53:10;;;;;;;8.03;6.20;;;30.00;99.90;;;;;;5036212;28;20621;-77
2023/07/09 06:55:37;;;;;;;7.50;6.80;;;30.40;99.90;;;;;;5043460;28;20282;-76
2023/07/09 06:58:04;;;;;;;8.57;7.00;;;30.70;99.90;;;;;;5049527;28;20195;-76
2023/07/09 07:00:31;;;;;;;7.37;6.47;;;30.70;99.90;;;;;;5046384;28;20196;-76
2023/07/09 07:02:58;;;;;;;9.53;7.10;;;30.80;99.90;;;;;;5053790;28;20225;-77
2023/07/09 07:05:25;;;;;;;7.10;6.27;;;31.00;99.90;;;;;;5048200;28;20200;-78
2023/07/09 07:07:54;;;;;;;7.43;6.07;;;30.60;99.90;;;;;;5047925;28;20743;-85
2023/07/09 07:10:21;;;;;;;6.20;5.60;;;31.00;99.90;;;;;;5049173;28;20705;-79
2023/07/09 07:12:49;;;;;;;7.77;6.30;;;31.20;99.90;;;;;;5023238;28;20232;-78
2023/07/09 07:15:18;;;;;;;6.90;6.23;;;31.00;99.90;;;;;;5018589;28;20219;-84
2023/07/09 07:17:45;;;;;;;7.25;6.32;;;31.20;99.90;;;;;;5014879;28;20671;-78
2023/07/09 07:20:13;;;;;;;7.07;6.35;;;31.50;99.90;;;;;;5033395;28;20198;-79
2023/07/09 07:22:40;;;;;;;6.75;6.05;;;31.70;99.90;;;;;;5034503;28;20219;-79
2023/07/09 07:25:09;;;;;;;7.47;6.45;;;31.80;99.90;;;;;;5042546;28;20602;-79
2023/07/09 07:27:37;;;;;;;6.88;6.18;;;32.00;99.60;;;;;;5028950;28;20203;-79
2023/07/09 07:30:08;;;;;;;7.00;6.35;;;32.20;99.90;;;;;;5047565;28;20558;-80
2023/07/09 07:32:37;;;;;;;8.60;6.25;;;32.00;99.40;;;;;;5028979;28;20215;-80
2023/07/09 07:35:05;;;;;;;6.70;6.00;;;32.50;99.20;;;;;;5027446;28;20206;-77
2023/07/09 07:37:31;;;;;;;7.05;6.28;;;32.40;98.60;;;;;;5016035;28;20258;-77
2023/07/09 07:39:58;;;;;;;6.78;6.10;;;32.10;98.90;;;;;;5016029;28;20243;-77
2023/07/09 07:42:26;;;;;;;6.80;6.10;;;32.20;98.20;;;;;;5019713;28;20223;-77
2023/07/09 07:44:53;;;;;;;8.35;6.72;;;32.30;99.60;;;;;;5034261;28;20246;-77
2023/07/09 07:47:20;;;;;;;7.40;6.05;;;32.00;98.90;;;;;;5035175;28;20196;-79
2023/07/09 07:49:47;;;;;;;6.75;6.05;;;32.10;99.90;;;;;;5034485;28;20674;-83
2023/07/09 07:52:14;;;;;;;6.60;5.95;;;32.30;98.80;;;;;;5036761;28;20212;-79
2023/07/09 07:54:41;;;;;;;6.57;5.80;;;32.60;98.40;;;;;;5018430;28;20211;-77
2023/07/09 07:57:09;;;;;;;8.55;6.70;;;32.80;99.70;;;;;;5035507;28;20223;-78
2023/07/09 07:59:37;;;;;;;6.75;6.03;;;32.50;98.50;;;;;;5034568;28;20192;-77
2023/07/09 08:02:06;;;;;;;6.85;6.05;;;32.60;99.40;;;;;;5021105;28;20208;-77
2023/07/09 08:04:33;;;;;;;7.88;6.60;;;33.00;98.70;;;;;;5024007;28;20559;-77
2023/07/09 08:07:00;;;;;;;7.32;6.10;;;33.20;97.60;;;;;;5033393;28;20613;-77
2023/07/09 08:09:26;;;;;;;7.28;6.57;;;33.30;98.90;;;;;;5034853;28;20273;-77
2023/07/09 08:11:53;;;;;;;9.00;6.85;;;33.50;98.40;;;;;;5034720;28;20199;-77
2023/07/09 08:14:20;;;;;;;6.32;5.72;;;33.70;96.00;;;;;;5015196;28;20251;-77
2023/07/09 08:16:49;;;;;;;8.10;7.30;;;33.80;96.30;;;;;;5032926;28;20738;-77
2023/07/09 08:19:18;;;;;;;8.18;7.38;;;33.90;96.70;;;;;;5035185;28;20264;-78
2023/07/09 08:21:45;;;;;;;6.85;6.25;;;34.10;96.00;;;;;;5035170;28;20199;-77
2023/07/09 08:24:14;;;;;;;7.55;6.53;;;34.40;96.90;;;;;;5035049;28;20246;-77
2023/07/09 08:26:41;;;;;;;7.32;6.72;;;34.70;95.80;;;;;;5034785;28;20234;-78
2023/07/09 08:29:07;;;;;;;7.07;5.97;;;34.80;94.60;;;;;;5022601;28;20260;-81
2023/07/09 08:31:34;;;;;;;7.70;6.70;;;34.60;94.00;;;;;;5025026;28;20250;-79
2023/07/09 08:34:02;;;;;;;6.75;5.90;;;34.90;93.30;;;;;;5033384;28;20268;-78
2023/07/09 08:36:30;;;;;;;6.65;5.95;;;34.80;93.20;;;;;;5032181;28;20200;-78
2023/07/09 08:38:57;;;;;;;6.50;5.80;;;35.00;93.20;;;;;;5014246;28;20199;-77
2023/07/09 08:41:39;;;;;;;6.90;6.20;;;35.30;91.30;;;;;;5035291;28;20192;-77
2023/07/09 08:44:23;;;;;;;7.68;6.00;;;35.20;92.10;;;;;;5034732;28;20605;-77
2023/07/09 08:47:03;;;;;;;7.80;5.95;;;35.30;92.80;;;;;;5033400;28;20243;-77
2023/07/09 08:49:39;;;;;;;6.78;6.07;;;35.60;93.30;;;;;;5033350;28;20195;-77
2023/07/09 08:52:14;;;;;;;7.60;6.20;;;35.60;92.00;;;;;;5035229;28;20229;-78
2023/07/09 08:54:42;;;;;;;6.82;6.22;;;35.40;92.10;;;;;;5019338;28;20204;-77
2023/07/09 08:57:18;;;;;;;8.23;7.43;;;35.50;92.10;;;;;;5028066;28;20200;-77
2023/07/09 08:59:46;;;;;;;7.35;6.75;;;35.70;91.80;;;;;;5027071;28;20683;-77
2023/07/09 09:02:23;;;;;;;6.90;6.30;;;36.10;91.90;;;;;;5021514;28;20310;-77
2023/07/09 09:04:52;;;;;;;7.50;6.80;;;36.10;91.80;;;;;;5033946;28;20207;-77
2023/07/09 09:07:27;;;;;;;7.10;6.50;;;36.00;90.70;;;;;;5035700;28;20195;-78
2023/07/09 09:09:58;;;;;;;8.23;6.78;;;35.80;90.00;;;;;;5019047;28;20223;-78
2023/07/09 09:12:28;;;;;;;7.60;6.88;;;35.80;90.60;;;;;;5035936;28;20725;-77
2023/07/09 09:14:58;;;;;;;7.57;6.25;;;36.10;89.20;;;;;;5018291;28;20290;-77
2023/07/09 09:17:28;;;;;;;6.85;6.15;;;36.50;90.20;;;;;;5034305;28;20249;-77
2023/07/09 09:20:00;;;;;;;7.97;7.10;;;36.80;86.30;;;;;;5034905;28;20615;-77
2023/07/09 09:22:32;;;;;;;7.43;6.72;;;36.80;85.50;;;;;;5035358;28;20216;-78
2023/07/09 09:25:04;;;;;;;6.75;6.15;;;36.90;86.80;;;;;;5037722;28;20204;-78
2023/07/09 09:27:31;;;;;;;7.32;5.82;;;37.00;86.50;;;;;;5021310;28;20246;-78
2023/07/09 09:29:58;;;;;;;7.20;6.60;;;37.00;84.80;;;;;;5036939;28;20246;-78
2023/07/09 09:32:28;;;;;;;7.13;6.50;;;37.10;85.40;;;;;;5020647;28;20215;-78
2023/07/09 09:34:57;;;;;;;6.88;6.28;;;37.00;82.60;;;;;;5027506;28;20206;-78
2023/07/09 09:37:29;;;;;;;6.97;6.38;;;36.90;82.70;;;;;;5035937;28;20227;-77
2023/07/09 09:39:56;;;;;;;8.05;7.38;;;37.00;84.00;;;;;;5034134;28;20619;-78
2023/07/09 09:42:25;;;;;;;6.75;6.13;;;37.10;83.20;;;;;;5042228;28;20245;-78
2023/07/09 09:44:55;;;;;;;6.85;6.25;;;37.30;80.60;;;;;;5039465;28;20286;-78
2023/07/09 09:47:23;;;;;;;6.45;5.85;;;37.60;82.30;;;;;;5035961;28;20196;-78
2023/07/09 09:49:50;;;;;;;6.47;5.88;;;37.60;81.60;;;;;;5035458;28;20195;-77
2023/07/09 09:52:19;;;;;;;6.85;5.63;;;37.70;80.50;;;;;;5021271;28;20735;-78
2023/07/09 09:54:52;;;;;;;6.63;6.00;;;37.60;80.30;;;;;;5031547;28;20234;-80
2023/07/09 09:57:22;;;;;;;7.88;6.20;;;37.70;80.80;;;;;;5025081;28;20200;-76
2023/07/09 09:59:49;;;;;;;7.30;6.53;;;37.80;79.80;;;;;;5030003;28;20254;-78
2023/07/09 10:02:18;;;;;;;7.72;6.50;;;37.80;78.20;;;;;;5017675;28;20698;-77
2023/07/09 10:04:45;;;;;;;7.30;6.70;;;37.90;79.20;;;;;;5031032;28;20262;-77
2023/07/09 10:07:22;;;;;;;6.45;5.85;;;37.50;77.60;;;;;;5033282;28;20207;-77
2023/07/09 10:09:51;;;;;;;6.85;5.95;;;37.60;80.30;;;;;;5033630;28;20592;-77
2023/07/09 10:12:36;;;;;;;7.20;5.90;;;37.70;77.60;;;;;;5017726;28;20686;-77
2023/07/09 10:15:14;;;;;;;6.22;5.63;;;37.40;78.10;;;;;;5018738;28;20254;-77
2023/07/09 10:17:52;;;;;;;6.82;6.07;;;37.40;79.70;;;;;;5032388;28;20207;-80
2023/07/09 10:20:24;;;;;;;6.32;5.70;;;37.30;78.50;;;;;;5036664;28;20194;-77
2023/07/09 10:22:58;;;;;;;6.97;6.28;;;37.10;80.40;;;;;;5039719;28;20211;-77
2023/07/09 10:25:37;;;;;;;7.10;6.40;;;37.00;79.70;;;;;;5032509;28;20772;-79
2023/07/09 10:28:36;;;;;;;7.93;6.13;;;37.00;79.80;;;;;;5035695;28;20697;-81
2023/07/09 10:31:11;;;;;;;7.45;5.97;;;37.00;80.60;;;;;;4974829;28;20225;-80
2023/07/09 10:33:49;;;;;;;6.05;5.55;;;37.00;80.70;;;;;;5022655;28;20218;-79
2023/07/09 10:36:29;;;;;;;6.47;5.97;;;37.00;79.70;;;;;;5026285;28;20199;-79
2023/07/09 10:39:03;;;;;;;6.97;6.10;;;37.10;80.00;;;;;;5035375;28;20199;-78
2023/07/09 10:41:32;;;;;;;8.02;5.70;;;37.00;78.70;;;;;;5013804;28;20693;-79
2023/07/09 10:44:01;;;;;;;7.43;6.72;;;36.80;81.00;;;;;;5041093;28;20302;-79
2023/07/09 10:46:32;;;;;;;8.68;7.30;;;36.70;79.10;;;;;;5037353;28;20204;-79
2023/07/09 10:49:02;;;;;;;7.93;7.13;;;36.50;81.80;;;;;;5037725;28;20211;-78
2023/07/09 10:51:33;;;;;;;7.88;7.18;;;36.60;81.30;;;;;;5037904;28;20199;-77
2023/07/09 10:54:08;;;;;;;7.88;7.25;;;36.80;80.80;;;;;;5035935;28;20216;-80
2023/07/09 10:56:36;;;;;;;8.07;7.28;;;36.70;79.10;;;;;;5016132;28;20671;-80
2023/07/09 10:59:12;;;;;;;7.70;7.10;;;36.50;78.60;;;;;;5017230;28;20229;-79
2023/07/09 11:01:42;;;;;;;7.72;6.65;;;36.10;80.20;;;;;;5017737;28;20200;-80
2023/07/09 11:04:17;;;;;;;8.00;6.88;;;35.80;77.80;;;;;;5034950;28;20224;-80
2023/07/09 11:06:49;;;;;;;7.00;6.40;;;35.50;81.40;;;;;;5017497;28;20204;-80
2023/07/09 11:09:25;;;;;;;6.80;6.20;;;35.60;82.40;;;;;;5008744;28;20659;-79
2023/07/09 11:11:55;;;;;;;6.32;5.70;;;35.80;80.10;;;;;;5031661;28;20231;-80
2023/07/09 11:14:28;;;;;;;6.78;6.07;;;35.90;78.80;;;;;;5033172;28;20224;-80
2023/07/09 11:16:57;;;;;;;6.50;5.85;;;36.00;76.00;;;;;;5033725;28;20200;-79
2023/07/09 11:19:25;;;;;;;6.75;6.25;;;35.80;75.30;;;;;;5006869;28;20753;-80
2023/07/09 11:22:07;;;;;;;7.88;6.35;;;35.80;74.80;;;;;;5014956;28;20207;-80
2023/07/09 11:24:46;;;;;;;5.90;5.35;;;35.60;75.10;;;;;;5027196;28;20220;-80
2023/07/09 11:27:22;;;;;;;7.80;5.90;;;35.70;73.90;;;;;;5015327;28;20203;-79
2023/07/09 11:29:56;;;;;;;5.75;5.20;;;35.80;74.70;;;;;;5014734;28;20238;-80
2023/07/09 11:32:24;;;;;;;5.90;5.28;;;35.60;74.70;;;;;;5029153;28;20264;-79
2023/07/09 11:34:51;;;;;;;6.25;5.50;;;35.70;75.40;;;;;;5022285;28;20207;-80
2023/07/09 11:37:19;;;;;;;7.07;5.47;;;35.90;74.50;;;;;;5016125;28;20196;-81
2023/07/09 11:39:49;;;;;;;7.05;4.95;;;35.90;71.40;;;;;;5033318;28;20202;-81
2023/07/09 11:42:28;;;;;;;6.57;5.30;;;35.90;71.00;;;;;;5036773;28;20219;-80
2023/07/09 11:45:02;;;;;;;6.18;5.38;;;35.60;72.90;;;;;;5019087;28;20227;-79
2023/07/09 11:47:35;;;;;;;6.90;6.03;;;35.50;71.60;;;;;;5015952;28;20674;-81
2023/07/09 11:50:05;;;;;;;8.48;6.13;;;35.50;72.90;;;;;;5016401;28;20733;-79
2023/07/09 11:52:37;;;;;;;6.35;5.45;;;35.60;73.70;;;;;;5034215;28;20640;-81
2023/07/09 11:55:20;;;;;;;7.75;6.32;;;35.70;72.60;;;;;;5016443;28;20620;-80
2023/07/09 11:57:49;;;;;;;7.65;6.40;;;35.80;72.70;;;;;;5030605;28;20226;-81
2023/07/09 12:00:17;;;;;;;6.72;5.97;;;35.90;71.50;;;;;;5034765;28;20568;-80
2023/07/09 12:02:44;;;;;;;6.35;5.75;;;35.90;70.90;;;;;;5035803;28;20261;-80
2023/07/09 12:05:11;;;;;;;6.10;5.50;;;35.90;72.40;;;;;;5033645;28;20289;-80
2023/07/09 12:07:38;;;;;;;5.60;5.10;;;35.80;71.20;;;;;;5034853;28;20666;-79
2023/07/09 12:10:19;;;;;;;10.60;5.70;;;35.70;70.90;;;;;;5033758;28;20262;-79
2023/07/09 12:12:46;;;;;;;6.85;5.55;;;35.70;71.60;;;;;;5057444;22;20231;-78
2023/07/09 12:15:19;;;;;;;7.72;5.50;;;35.70;70.20;;;;;;5036084;28;20275;-78
2023/07/09 12:17:54;;;;;;;6.10;5.43;;;35.50;70.20;;;;;;5034243;28;20223;-77
2023/07/09 12:20:21;;;;;;;6.78;5.45;;;35.40;69.60;;;;;;5036861;28;20191;-77
2023/07/09 12:22:48;;;;;;;7.03;5.38;;;35.20;70.50;;;;;;5035790;28;20220;-77
2023/07/09 12:25:23;;;;;;;5.53;5.03;;;35.00;70.20;;;;;;5035592;28;20227;-77
2023/07/09 12:27:50;;;;;;;9.82;5.60;;;35.10;71.50;;;;;;5032670;28;20195;-75
2023/07/09 12:30:17;;;;;;;8.13;5.68;;;34.90;71.50;;;;;;5026277;28;20203;-75
2023/07/09 12:32:46;;;;;;;5.85;5.00;;;34.90;73.50;;;;;;5028767;28;20220;-75
2023/07/09 12:35:15;;;;;;;6.70;5.63;;;34.80;72.40;;;;;;5030393;28;20196;-75
2023/07/09 12:37:44;;;;;;;7.00;5.18;;;34.80;73.40;;;;;;5042631;28;20226;-75
2023/07/09 12:40:16;;;;;;;6.50;5.57;;;34.80;71.20;;;;;;5030714;28;20275;-75
2023/07/09 12:42:45;;;;;;;6.93;5.13;;;34.80;71.40;;;;;;5027928;28;20224;-75
2023/07/09 12:45:18;;;;;;;7.05;5.50;;;34.50;72.30;;;;;;5029662;28;20238;-75
2023/07/09 12:47:46;;;;;;;8.27;5.75;;;34.20;72.00;;;;;;5031714;28;20701;-75
2023/07/09 12:50:22;;;;;;;5.78;5.28;;;34.20;72.50;;;;;;5030290;28;20188;-75
2023/07/09 12:52:50;;;;;;;5.82;5.22;;;34.20;73.10;;;;;;5027530;28;20219;-75
2023/07/09 12:55:21;;;;;;;5.53;4.95;;;34.40;72.60;;;;;;5032090;28;20458;-75
2023/07/09 12:57:49;;;;;;;6.63;5.35;;;34.50;73.70;;;;;;5032338;28;20204;-75